Coral Topaz — 3ELB7 — position and weather

sailwx.info

Track history (hours):
 
Tides and Currents Weather Stations Pressure Air Temp Water Temp Dewpoint Dewpoint Depression Visibility Wind Speed Wind Dir Waves Ship Positions

Coral Topaz

Last reported at 2016-Dec-29 18:11 UTC. Time now 2017-Jan-17 09:00 UTC.
Position S 26°37' E 153°54'.
Warning: this ship's position is 18 days out of date.

Length 225 m; draft 12.8 m.

Type: Ship. MMSI: 372904000.

Date/timePositionNaut miles runAvg speedWind from/ knotsBaromVisibWave heightAir tempDewpointWater temp
2016-Dec-29 18:11S 26°37' E 153°54'1312.2
2016-Dec-29 17:08S 26°50' E 153°54'712.0
2016-Dec-29 16:33S 26°57' E 153°53'2411.6
2016-Dec-29 14:29S 27°21' E 153°52'1310.8
2016-Dec-29 13:17S 27°34' E 153°51'810.7
2016-Dec-29 12:33S 27°42' E 153°51'1110.7
2016-Dec-29 11:34S 27°52' E 153°50'1110.4
2016-Dec-29 10:32S 28°03' E 153°49'1010.5
2016-Dec-29 09:33S 28°13' E 153°48'1111.1
2016-Dec-29 08:34S 28°24' E 153°47'1411.7
2016-Dec-29 07:22S 28°38' E 153°46'23411.6
2016-Dec-28 11:14S 32°25' E 152°40'1411.5
2016-Dec-28 10:03S 32°36' E 152°30'612.3
2016-Dec-28 09:34S 32°40' E 152°25'1211.9
2016-Dec-28 08:34S 32°49' E 152°15'1211.6
2016-Dec-28 07:33S 32°57' E 152°05'1010.3
2016-Dec-28 06:33S 32°57' E 151°53'6 6.0
2016-Dec-28 05:34S 32°55' E 151°46'0 0.5
2016-Dec-28 04:32S 32°54' E 151°46'0 0.0
2016-Dec-28 03:29S 32°54' E 151°46'0 0.0
2016-Dec-28 02:29S 32°54' E 151°46'0 0.0
2016-Dec-28 01:32S 32°54' E 151°46'0 0.0
2016-Dec-28 00:29S 32°54' E 151°46'0 0.0
2016-Dec-27 23:29S 32°54' E 151°46'0 0.0
2016-Dec-27 22:29S 32°54' E 151°46'0 0.0
2016-Dec-27 19:23S 32°54' E 151°46'0 0.0
2016-Dec-27 18:29S 32°54' E 151°46'0 0.0
2016-Dec-27 17:32S 32°54' E 151°46'0 0.0
2016-Dec-27 16:29S 32°54' E 151°46'0 0.0
2016-Dec-27 15:14S 32°54' E 151°46'0 0.0
2016-Dec-27 13:29S 32°54' E 151°46'0 0.0
2016-Dec-27 12:23S 32°54' E 151°46'0 0.0
2016-Dec-27 11:17S 32°54' E 151°46'0 0.0
2016-Dec-27 10:29S 32°54' E 151°46'0 0.0
2016-Dec-27 09:17S 32°54' E 151°46'0 0.0
2016-Dec-27 08:29S 32°54' E 151°46'0 0.0
2016-Dec-27 06:29S 32°54' E 151°46'0 0.0
2016-Dec-27 05:32S 32°54' E 151°46'0 0.0
2016-Dec-27 04:32S 32°54' E 151°46'0 0.0
2016-Dec-27 03:32S 32°54' E 151°46'0 0.0
2016-Dec-27 02:29S 32°54' E 151°46'0 0.0
2016-Dec-27 01:29S 32°54' E 151°46'0 0.0
2016-Dec-27 00:17S 32°54' E 151°46'0 0.0
2016-Dec-26 23:32S 32°54' E 151°46'0 0.0
2016-Dec-26 22:32S 32°54' E 151°46'0 0.0
2016-Dec-26 21:29S 32°54' E 151°46'0 0.0
2016-Dec-26 20:32S 32°54' E 151°46'0 0.0
2016-Dec-26 19:26S 32°54' E 151°46'0 0.0
2016-Dec-26 18:32S 32°54' E 151°46'0 0.0
2016-Dec-26 17:29S 32°54' E 151°46'0 0.0
2016-Dec-26 16:32S 32°54' E 151°46'0 0.0
2016-Dec-26 15:32S 32°54' E 151°46'0 0.0
2016-Dec-26 14:32S 32°54' E 151°46'0 0.0
2016-Dec-26 12:23S 32°54' E 151°46'0 0.0
2016-Dec-26 11:29S 32°54' E 151°46'0 0.0
2016-Dec-26 10:23S 32°54' E 151°46'1 1.8
2016-Dec-26 09:33S 32°55' E 151°48'7 6.8
2016-Dec-26 08:33S 33°01' E 151°51'10 9.7
2016-Dec-26 07:33S 33°10' E 151°46'5 4.7
2016-Dec-26 06:32S 33°13' E 151°41'0 0.0
2016-Dec-25 03:20S 33°13' E 151°41'0 0.0
2016-Dec-25 02:32S 33°13' E 151°41'0 0.0
2016-Dec-24 03:32S 33°13' E 151°41'  
2016-Dec-21 20:07S 33°04' E 151°51'5 9.5
2016-Dec-21 19:33S 33°00' E 151°55'7 6.7
2016-Dec-21 18:33S 32°58' E 152°03'1514.8
2016-Dec-21 17:33S 32°48' E 152°16'1414.4
2016-Dec-21 16:33S 32°38' E 152°28'1514.8
2016-Dec-21 15:33S 32°27' E 152°39'26415.5
2016-Dec-20 22:28S 28°09' E 153°49'1516.0
2016-Dec-20 21:33S 27°55' E 153°50'1717.3
2016-Dec-20 20:33S 27°38' E 153°52'2118.3
2016-Dec-20 19:24S 27°17' E 153°52'1517.7
2016-Dec-20 18:33S 27°02' E 153°53'1917.9
2016-Dec-20 17:28S 26°42' E 153°53'2017.5
2016-Dec-20 16:19S 26°22' E 153°54'  
Track history (hours):
 
Tides and Currents Weather Stations Pressure Air Temp Water Temp Dewpoint Dewpoint Depression Visibility Wind Speed Wind Dir Waves Ship Positions

Coral Topaz

Last reported at 2016-Dec-29 18:11 UTC. Time now 2017-Jan-17 09:00 UTC.
Position S 26°37' E 153°54'.
Warning: this ship's position is 18 days out of date.

Length 225 m; draft 12.8 m.

Type: Ship. MMSI: 372904000.

Date/timePositionNaut miles runAvg speedWind from/ knotsBaromVisibWave heightAir tempDewpointWater temp
2016-Dec-29 18:11S 26°37' E 153°54'1312.2
2016-Dec-29 17:08S 26°50' E 153°54'712.0
2016-Dec-29 16:33S 26°57' E 153°53'2411.6
2016-Dec-29 14:29S 27°21' E 153°52'1310.8
2016-Dec-29 13:17S 27°34' E 153°51'810.7
2016-Dec-29 12:33S 27°42' E 153°51'1110.7
2016-Dec-29 11:34S 27°52' E 153°50'1110.4
2016-Dec-29 10:32S 28°03' E 153°49'1010.5
2016-Dec-29 09:33S 28°13' E 153°48'1111.1
2016-Dec-29 08:34S 28°24' E 153°47'1411.7
2016-Dec-29 07:22S 28°38' E 153°46'23411.6
2016-Dec-28 11:14S 32°25' E 152°40'1411.5
2016-Dec-28 10:03S 32°36' E 152°30'612.3
2016-Dec-28 09:34S 32°40' E 152°25'1211.9
2016-Dec-28 08:34S 32°49' E 152°15'1211.6
2016-Dec-28 07:33S 32°57' E 152°05'1010.3
2016-Dec-28 06:33S 32°57' E 151°53'6 6.0
2016-Dec-28 05:34S 32°55' E 151°46'0 0.5
2016-Dec-28 04:32S 32°54' E 151°46'0 0.0
2016-Dec-28 03:29S 32°54' E 151°46'0 0.0
2016-Dec-28 02:29S 32°54' E 151°46'0 0.0
2016-Dec-28 01:32S 32°54' E 151°46'0 0.0
2016-Dec-28 00:29S 32°54' E 151°46'0 0.0
2016-Dec-27 23:29S 32°54' E 151°46'0 0.0
2016-Dec-27 22:29S 32°54' E 151°46'0 0.0
2016-Dec-27 19:23S 32°54' E 151°46'0 0.0
2016-Dec-27 18:29S 32°54' E 151°46'0 0.0
2016-Dec-27 17:32S 32°54' E 151°46'0 0.0
2016-Dec-27 16:29S 32°54' E 151°46'0 0.0
2016-Dec-27 15:14S 32°54' E 151°46'0 0.0
2016-Dec-27 13:29S 32°54' E 151°46'0 0.0
2016-Dec-27 12:23S 32°54' E 151°46'0 0.0
2016-Dec-27 11:17S 32°54' E 151°46'0 0.0
2016-Dec-27 10:29S 32°54' E 151°46'0 0.0
2016-Dec-27 09:17S 32°54' E 151°46'0 0.0
2016-Dec-27 08:29S 32°54' E 151°46'0 0.0
2016-Dec-27 06:29S 32°54' E 151°46'0 0.0
2016-Dec-27 05:32S 32°54' E 151°46'0 0.0
2016-Dec-27 04:32S 32°54' E 151°46'0 0.0
2016-Dec-27 03:32S 32°54' E 151°46'0 0.0
2016-Dec-27 02:29S 32°54' E 151°46'0 0.0
2016-Dec-27 01:29S 32°54' E 151°46'0 0.0
2016-Dec-27 00:17S 32°54' E 151°46'0 0.0
2016-Dec-26 23:32S 32°54' E 151°46'0 0.0
2016-Dec-26 22:32S 32°54' E 151°46'0 0.0
2016-Dec-26 21:29S 32°54' E 151°46'0 0.0
2016-Dec-26 20:32S 32°54' E 151°46'0 0.0
2016-Dec-26 19:26S 32°54' E 151°46'0 0.0
2016-Dec-26 18:32S 32°54' E 151°46'0 0.0
2016-Dec-26 17:29S 32°54' E 151°46'0 0.0
2016-Dec-26 16:32S 32°54' E 151°46'0 0.0
2016-Dec-26 15:32S 32°54' E 151°46'0 0.0
2016-Dec-26 14:32S 32°54' E 151°46'0 0.0
2016-Dec-26 12:23S 32°54' E 151°46'0 0.0
2016-Dec-26 11:29S 32°54' E 151°46'0 0.0
2016-Dec-26 10:23S 32°54' E 151°46'1 1.8
2016-Dec-26 09:33S 32°55' E 151°48'7 6.8
2016-Dec-26 08:33S 33°01' E 151°51'10 9.7
2016-Dec-26 07:33S 33°10' E 151°46'5 4.7
2016-Dec-26 06:32S 33°13' E 151°41'0 0.0
2016-Dec-25 03:20S 33°13' E 151°41'0 0.0
2016-Dec-25 02:32S 33°13' E 151°41'0 0.0
2016-Dec-24 03:32S 33°13' E 151°41'  
2016-Dec-21 20:07S 33°04' E 151°51'5 9.5
2016-Dec-21 19:33S 33°00' E 151°55'7 6.7
2016-Dec-21 18:33S 32°58' E 152°03'1514.8
2016-Dec-21 17:33S 32°48' E 152°16'1414.4
2016-Dec-21 16:33S 32°38' E 152°28'1514.8
2016-Dec-21 15:33S 32°27' E 152°39'26415.5
2016-Dec-20 22:28S 28°09' E 153°49'1516.0
2016-Dec-20 21:33S 27°55' E 153°50'1717.3
2016-Dec-20 20:33S 27°38' E 153°52'2118.3
2016-Dec-20 19:24S 27°17' E 153°52'1517.7
2016-Dec-20 18:33S 27°02' E 153°53'1917.9
2016-Dec-20 17:28S 26°42' E 153°53'2017.5
2016-Dec-20 16:19S 26°22' E 153°54'  

Dump ship's entire track history